Time,TemperatureF,DewpointF,PressureIn,WindDirection,WindDirectionDegrees,WindSpeedMPH,WindSpeedGustMPH,Humidity,HourlyPrecipIn,Conditions,Clouds,dailyrainin,SoftwareType,DateUTC
2013-09-13 00:00:00,67.5,67.2,29.71,West,274,0.0,0.0,99,0.04,,,0.00,Wunderground v.1.15,2013-09-13 04:00:00,
2013-09-13 00:05:00,67.6,67.0,29.71,West,274,0.0,0.0,98,0.04,,,0.00,Wunderground v.1.15,2013-09-13 04:05:00,
2013-09-13 00:10:00,67.6,67.0,29.71,West,274,0.0,0.0,98,0.19,,,0.02,Wunderground v.1.15,2013-09-13 04:10:00,
2013-09-13 00:15:00,67.6,67.0,29.71,West,274,0.0,0.0,98,0.18,,,0.04,Wunderground v.1.15,2013-09-13 04:15:00,
2013-09-13 00:20:00,67.6,67.3,29.71,West,274,0.0,0.0,99,0.12,,,0.04,Wunderground v.1.15,2013-09-13 04:20:00,
2013-09-13 00:25:00,67.5,67.2,29.70,West,274,0.0,0.0,99,0.07,,,0.05,Wunderground v.1.15,2013-09-13 04:25:00,
2013-09-13 00:30:00,67.3,66.7,29.70,West,274,0.0,0.0,98,0.09,,,0.06,Wunderground v.1.15,2013-09-13 04:30:00,
2013-09-13 00:40:00,67.1,66.5,29.70,West,274,0.0,0.0,98,0.06,,,0.06,Wunderground v.1.15,2013-09-13 04:40:00,
2013-09-13 00:45:00,66.8,66.2,29.70,West,274,0.0,0.0,98,0.04,,,0.06,Wunderground v.1.15,2013-09-13 04:45:00,
2013-09-13 00:54:00,66.4,65.8,29.69,West,274,0.0,0.0,98,0.00,,,0.06,Wunderground v.1.15,2013-09-13 04:54:00,
2013-09-13 01:00:00,66.4,65.8,29.69,West,274,0.0,0.0,98,0.00,,,0.07,Wunderground v.1.15,2013-09-13 05:00:00,
2013-09-13 01:10:00,66.3,65.7,29.68,West,274,0.0,0.0,98,0.06,,,0.08,Wunderground v.1.15,2013-09-13 05:10:00,
2013-09-13 01:15:00,66.2,65.6,29.68,West,274,0.0,0.0,98,0.04,,,0.08,Wunderground v.1.15,2013-09-13 05:15:00,
2013-09-13 01:25:00,66.2,65.6,29.68,West,274,0.0,0.0,98,0.00,,,0.08,Wunderground v.1.15,2013-09-13 05:25:00,
2013-09-13 01:30:00,66.2,65.9,29.68,West,274,0.0,0.0,99,0.00,,,0.08,Wunderground v.1.15,2013-09-13 05:30:00,
2013-09-13 01:40:00,66.3,66.0,29.68,West,274,0.0,0.0,99,0.00,,,0.09,Wunderground v.1.15,2013-09-13 05:40:00,
2013-09-13 01:45:00,66.3,66.0,29.68,West,274,0.0,0.0,99,0.00,,,0.09,Wunderground v.1.15,2013-09-13 05:45:00,
2013-09-13 01:50:00,66.3,66.0,29.68,West,274,0.0,0.0,99,0.00,,,0.09,Wunderground v.1.15,2013-09-13 05:50:00,
2013-09-13 02:00:00,66.3,66.0,29.67,West,274,0.0,0.0,99,0.00,,,0.09,Wunderground v.1.15,2013-09-13 06:00:00,
2013-09-13 02:10:00,66.2,65.9,29.67,West,274,0.0,0.0,99,0.00,,,0.09,Wunderground v.1.15,2013-09-13 06:10:00,
2013-09-13 02:15:00,66.1,65.8,29.66,West,274,0.0,0.0,99,0.00,,,0.09,Wunderground v.1.15,2013-09-13 06:15:00,
2013-09-13 02:25:00,66.1,65.8,29.65,West,274,0.0,0.0,99,0.00,,,0.09,Wunderground v.1.15,2013-09-13 06:25:00,
2013-09-13 02:30:00,66.1,65.8,29.66,West,274,0.0,0.0,99,0.00,,,0.09,Wunderground v.1.15,2013-09-13 06:30:00,
2013-09-13 02:40:00,66.0,65.7,29.66,West,274,0.0,0.0,99,0.00,,,0.09,Wunderground v.1.15,2013-09-13 06:40:00,
2013-09-13 02:45:00,66.0,65.7,29.66,West,274,0.0,0.0,99,0.00,,,0.09,Wunderground v.1.15,2013-09-13 06:45:00,
2013-09-13 02:55:00,65.9,65.3,29.65,West,274,0.0,0.0,98,0.00,,,0.09,Wunderground v.1.15,2013-09-13 06:55:00,
2013-09-13 03:00:00,65.9,65.6,29.66,West,274,0.0,0.0,99,0.00,,,0.09,Wunderground v.1.15,2013-09-13 07:00:00,
2013-09-13 03:10:00,65.9,65.6,29.66,West,274,0.0,0.0,99,0.00,,,0.09,Wunderground v.1.15,2013-09-13 07:10:00,
2013-09-13 03:15:00,65.9,65.6,29.66,West,274,0.0,0.0,99,0.00,,,0.09,Wunderground v.1.15,2013-09-13 07:15:00,
2013-09-13 03:25:00,65.7,65.4,29.66,West,274,0.0,0.0,99,0.00,,,0.09,Wunderground v.1.15,2013-09-13 07:25:00,
2013-09-13 03:30:00,65.7,65.4,29.66,West,274,0.0,0.0,99,0.00,,,0.09,Wunderground v.1.15,2013-09-13 07:30:00,
2013-09-13 03:40:00,65.7,65.4,29.66,West,274,0.0,0.0,99,0.00,,,0.09,Wunderground v.1.15,2013-09-13 07:40:00,
2013-09-13 03:45:00,65.6,65.3,29.66,West,274,0.0,0.0,99,0.00,,,0.09,Wunderground v.1.15,2013-09-13 07:45:00,
2013-09-13 03:55:00,65.5,65.2,29.66,West,274,0.0,0.0,99,0.00,,,0.09,Wunderground v.1.15,2013-09-13 07:55:00,
2013-09-13 04:00:00,65.5,65.2,29.66,West,274,0.0,0.0,99,0.00,,,0.10,Wunderground v.1.15,2013-09-13 08:00:00,
2013-09-13 04:05:00,65.5,65.2,29.66,West,274,0.0,0.0,99,0.00,,,0.10,Wunderground v.1.15,2013-09-13 08:05:00,
2013-09-13 04:10:00,65.4,65.1,29.66,West,274,0.0,0.0,99,0.00,,,0.10,Wunderground v.1.15,2013-09-13 08:10:00,
2013-09-13 04:15:00,65.3,64.7,29.66,West,274,0.0,0.0,98,0.00,,,0.10,Wunderground v.1.15,2013-09-13 08:15:00,
2013-09-13 04:25:00,65.3,65.0,29.66,West,274,0.0,0.0,99,0.00,,,0.10,Wunderground v.1.15,2013-09-13 08:25:00,
2013-09-13 04:30:00,65.3,65.0,29.66,West,274,0.0,0.0,99,0.00,,,0.10,Wunderground v.1.15,2013-09-13 08:30:00,
2013-09-13 04:40:00,65.3,65.0,29.66,West,274,0.0,0.0,99,0.00,,,0.10,Wunderground v.1.15,2013-09-13 08:40:00,
2013-09-13 04:45:00,65.3,65.0,29.66,West,274,0.0,0.0,99,0.00,,,0.10,Wunderground v.1.15,2013-09-13 08:45:00,
2013-09-13 04:55:00,65.4,65.1,29.66,West,274,0.0,0.0,99,0.00,,,0.10,Wunderground v.1.15,2013-09-13 08:55:00,
2013-09-13 05:00:00,65.4,65.1,29.66,West,274,0.0,0.0,99,0.00,,,0.10,Wunderground v.1.15,2013-09-13 09:00:00,
2013-09-13 05:10:00,65.5,65.2,29.67,West,274,0.0,0.0,99,0.00,,,0.10,Wunderground v.1.15,2013-09-13 09:10:00,
2013-09-13 05:15:00,65.4,65.1,29.67,West,274,0.0,0.0,99,0.00,,,0.10,Wunderground v.1.15,2013-09-13 09:15:00,
2013-09-13 05:24:00,65.2,64.9,29.67,West,274,0.0,0.0,99,0.00,,,0.10,Wunderground v.1.15,2013-09-13 09:24:00,
2013-09-13 05:30:00,65.0,64.7,29.67,West,274,0.0,0.0,99,0.00,,,0.10,Wunderground v.1.15,2013-09-13 09:30:00,
2013-09-13 05:39:00,64.8,64.5,29.67,West,274,0.0,0.0,99,0.00,,,0.10,Wunderground v.1.15,2013-09-13 09:39:00,
2013-09-13 05:45:00,64.7,64.1,29.68,West,274,0.0,0.0,98,0.00,,,0.10,Wunderground v.1.15,2013-09-13 09:45:00,
2013-09-13 05:55:00,64.6,64.3,29.68,West,274,0.0,0.0,99,0.00,,,0.10,Wunderground v.1.15,2013-09-13 09:55:00,
2013-09-13 06:05:00,64.3,64.0,29.69,West,274,0.0,0.0,99,0.00,,,0.10,Wunderground v.1.15,2013-09-13 10:05:00,
2013-09-13 06:10:00,64.2,63.9,29.68,West,274,0.0,0.0,99,0.00,,,0.10,Wunderground v.1.15,2013-09-13 10:10:00,
2013-09-13 06:15:00,64.1,63.8,29.68,West,274,0.0,0.0,99,0.00,,,0.10,Wunderground v.1.15,2013-09-13 10:15:00,
2013-09-13 06:25:00,63.8,63.2,29.68,West,274,0.0,0.0,98,0.00,,,0.10,Wunderground v.1.15,2013-09-13 10:25:00,
2013-09-13 06:30:00,63.6,63.0,29.68,West,274,0.0,0.0,98,0.00,,,0.10,Wunderground v.1.15,2013-09-13 10:30:00,
2013-09-13 06:40:00,63.5,63.2,29.68,West,274,0.0,0.0,99,0.00,,,0.10,Wunderground v.1.15,2013-09-13 10:40:00,
2013-09-13 06:45:00,63.5,63.2,29.68,West,274,0.0,0.0,99,0.00,,,0.10,Wunderground v.1.15,2013-09-13 10:45:00,
2013-09-13 06:55:00,63.2,62.6,29.69,West,274,0.0,0.0,98,0.00,,,0.10,Wunderground v.1.15,2013-09-13 10:55:00,
2013-09-13 07:00:00,63.2,62.6,29.68,West,274,0.0,0.0,98,0.00,,,0.10,Wunderground v.1.15,2013-09-13 11:00:00,
2013-09-13 07:10:00,62.9,62.3,29.69,West,274,0.0,0.0,98,0.00,,,0.10,Wunderground v.1.15,2013-09-13 11:10:00,
2013-09-13 07:15:00,62.7,62.1,29.69,West,274,0.0,0.0,98,0.00,,,0.10,Wunderground v.1.15,2013-09-13 11:15:00,
2013-09-13 07:24:00,62.6,62.0,29.69,West,274,0.0,0.0,98,0.00,,,0.10,Wunderground v.1.15,2013-09-13 11:24:00,
2013-09-13 07:30:00,62.5,61.9,29.69,West,274,0.0,0.0,98,0.00,,,0.10,Wunderground v.1.15,2013-09-13 11:30:00,
2013-09-13 07:40:00,62.6,62.3,29.69,West,274,0.0,0.0,99,0.00,,,0.10,Wunderground v.1.15,2013-09-13 11:40:00,
2013-09-13 07:45:00,62.7,62.4,29.69,West,274,0.0,0.0,99,0.00,,,0.10,Wunderground v.1.15,2013-09-13 11:45:00,
2013-09-13 07:55:00,62.9,62.6,29.69,West,274,0.0,0.0,99,0.00,,,0.10,Wunderground v.1.15,2013-09-13 11:55:00,
2013-09-13 08:00:00,63.0,62.7,29.69,West,274,0.0,0.0,99,0.00,,,0.10,Wunderground v.1.15,2013-09-13 12:00:00,
2013-09-13 08:10:00,63.1,62.8,29.68,West,274,0.0,0.0,99,0.00,,,0.10,Wunderground v.1.15,2013-09-13 12:10:00,
2013-09-13 08:15:00,63.4,63.1,29.69,West,274,0.0,0.0,99,0.00,,,0.10,Wunderground v.1.15,2013-09-13 12:15:00,
2013-09-13 08:25:00,64.0,63.7,29.70,West,274,0.0,0.0,99,0.00,,,0.10,Wunderground v.1.15,2013-09-13 12:25:00,
2013-09-13 08:30:00,64.7,64.4,29.71,West,274,0.0,0.0,99,0.00,,,0.10,Wunderground v.1.15,2013-09-13 12:30:00,
2013-09-13 08:40:00,64.6,64.3,29.70,SW,225,0.0,0.0,99,0.00,,,0.10,Wunderground v.1.15,2013-09-13 12:40:00,
2013-09-13 08:45:00,64.5,64.2,29.70,SW,225,0.0,0.0,99,0.00,,,0.10,Wunderground v.1.15,2013-09-13 12:45:00,
2013-09-13 08:55:00,63.4,62.8,29.71,SW,225,0.0,0.0,98,0.00,,,0.10,Wunderground v.1.15,2013-09-13 12:55:00,
2013-09-13 09:05:00,63.2,62.6,29.71,SW,225,0.0,0.0,98,0.00,,,0.10,Wunderground v.1.15,2013-09-13 13:05:00,
2013-09-13 09:15:00,63.3,62.7,29.71,SW,225,0.0,1.0,98,0.00,,,0.10,Wunderground v.1.15,2013-09-13 13:15:00,
2013-09-13 09:25:00,63.4,62.5,29.71,SW,225,0.0,1.0,97,0.00,,,0.10,Wunderground v.1.15,2013-09-13 13:25:00,
2013-09-13 09:30:00,63.4,62.5,29.71,SW,225,0.0,0.0,97,0.00,,,0.10,Wunderground v.1.15,2013-09-13 13:30:00,
2013-09-13 09:40:00,63.5,62.0,29.72,SW,225,0.0,0.0,95,0.00,,,0.10,Wunderground v.1.15,2013-09-13 13:40:00,
2013-09-13 09:45:00,63.7,62.2,29.72,SW,225,1.0,1.0,95,0.00,,,0.10,Wunderground v.1.15,2013-09-13 13:45:00,
2013-09-13 09:55:00,64.3,62.2,29.72,SW,225,0.0,1.0,93,0.00,,,0.10,Wunderground v.1.15,2013-09-13 13:55:00,
2013-09-13 10:00:00,64.7,62.3,29.72,SW,225,0.0,0.0,92,0.00,,,0.10,Wunderground v.1.15,2013-09-13 14:00:00,
2013-09-13 10:10:00,65.4,62.7,29.71,SW,225,0.0,2.0,91,0.00,,,0.10,Wunderground v.1.15,2013-09-13 14:10:00,
2013-09-13 10:15:00,65.6,61.9,29.71,SW,225,0.0,2.0,88,0.00,,,0.10,Wunderground v.1.15,2013-09-13 14:15:00,
2013-09-13 10:24:00,66.0,61.7,29.71,West,269,0.0,2.0,86,0.00,,,0.10,Wunderground v.1.15,2013-09-13 14:24:00,
2013-09-13 10:30:00,66.3,61.7,29.71,West,269,0.0,2.0,85,0.00,,,0.10,Wunderground v.1.15,2013-09-13 14:30:00,
2013-09-13 10:40:00,66.8,62.1,29.71,West,269,1.0,1.0,85,0.00,,,0.10,Wunderground v.1.15,2013-09-13 14:40:00,
2013-09-13 10:45:00,67.2,62.2,29.72,West,269,0.0,1.0,84,0.00,,,0.10,Wunderground v.1.15,2013-09-13 14:45:00,
2013-09-13 10:55:00,67.9,62.2,29.72,WNW,290,0.0,1.0,82,0.00,,,0.10,Wunderground v.1.15,2013-09-13 14:55:00,
2013-09-13 11:00:00,68.0,62.3,29.72,WNW,290,0.0,0.0,82,0.00,,,0.10,Wunderground v.1.15,2013-09-13 15:00:00,
2013-09-13 11:10:00,67.7,61.0,29.72,West,280,1.0,2.0,79,0.00,,,0.10,Wunderground v.1.15,2013-09-13 15:10:00,
2013-09-13 11:15:00,67.7,61.7,29.72,West,277,1.0,2.0,81,0.00,,,0.10,Wunderground v.1.15,2013-09-13 15:15:00,
2013-09-13 11:25:00,67.6,60.9,29.72,West,277,1.0,2.0,79,0.00,,,0.10,Wunderground v.1.15,2013-09-13 15:25:00,
2013-09-13 11:30:00,67.7,60.6,29.72,West,277,1.0,1.0,78,0.00,,,0.10,Wunderground v.1.15,2013-09-13 15:30:00,
2013-09-13 11:40:00,67.9,60.8,29.72,West,274,1.0,1.0,78,0.00,,,0.10,Wunderground v.1.15,2013-09-13 15:40:00,
2013-09-13 11:45:00,68.1,60.6,29.72,West,274,1.0,1.0,77,0.00,,,0.10,Wunderground v.1.15,2013-09-13 15:45:00,
2013-09-13 11:54:00,68.7,60.5,29.72,North,11,1.0,1.0,75,0.00,,,0.10,Wunderground v.1.15,2013-09-13 15:54:00,
2013-09-13 12:00:00,68.9,60.3,29.72,West,271,1.0,1.0,74,0.00,,,0.10,Wunderground v.1.15,2013-09-13 16:00:00,
2013-09-13 12:10:00,70.4,61.7,29.71,WNW,286,1.0,1.0,74,0.00,,,0.10,Wunderground v.1.15,2013-09-13 16:10:00,
2013-09-13 12:15:00,71.8,62.7,29.71,WNW,288,1.0,1.0,73,0.00,,,0.10,Wunderground v.1.15,2013-09-13 16:15:00,
2013-09-13 12:25:00,72.8,61.2,29.71,WNW,290,1.0,1.0,67,0.00,,,0.10,Wunderground v.1.15,2013-09-13 16:25:00,
2013-09-13 12:30:00,73.1,61.5,29.71,WNW,290,1.0,1.0,67,0.00,,,0.10,Wunderground v.1.15,2013-09-13 16:30:00,
2013-09-13 12:40:00,73.4,60.9,29.70,ENE,61,0.0,1.0,65,0.00,,,0.10,Wunderground v.1.15,2013-09-13 16:40:00,
2013-09-13 12:45:00,73.6,61.5,29.70,NE,36,0.0,1.0,66,0.00,,,0.10,Wunderground v.1.15,2013-09-13 16:45:00,
2013-09-13 12:55:00,74.2,62.5,29.69,East,82,0.0,1.0,67,0.00,,,0.10,Wunderground v.1.15,2013-09-13 16:55:00,
2013-09-13 13:00:00,74.2,60.8,29.69,NNE,32,1.0,1.0,63,0.00,,,0.10,Wunderground v.1.15,2013-09-13 17:00:00,
2013-09-13 13:10:00,74.7,61.3,29.69,WSW,257,1.0,1.0,63,0.00,,,0.10,Wunderground v.1.15,2013-09-13 17:10:00,
2013-09-13 13:15:00,74.6,60.3,29.69,WNW,286,1.0,1.0,61,0.00,,,0.10,Wunderground v.1.15,2013-09-13 17:15:00,
2013-09-13 13:25:00,73.0,59.7,29.70,West,273,2.0,2.0,63,0.00,,,0.10,Wunderground v.1.15,2013-09-13 17:25:00,
2013-09-13 13:30:00,72.1,58.8,29.70,NW,313,2.0,2.0,63,0.00,,,0.10,Wunderground v.1.15,2013-09-13 17:30:00,
2013-09-13 13:40:00,72.8,59.5,29.70,West,265,2.0,2.0,63,0.00,,,0.10,Wunderground v.1.15,2013-09-13 17:40:00,
2013-09-13 13:45:00,73.4,60.5,29.70,NW,304,2.0,2.0,64,0.00,,,0.10,Wunderground v.1.15,2013-09-13 17:45:00,
2013-09-13 13:55:00,74.1,59.3,29.70,West,274,2.0,3.0,60,0.00,,,0.10,Wunderground v.1.15,2013-09-13 17:55:00,
2013-09-13 14:00:00,74.5,59.7,29.70,SW,233,2.0,3.0,60,0.00,,,0.10,Wunderground v.1.15,2013-09-13 18:00:00,
2013-09-13 14:10:00,74.2,58.5,29.70,NNE,17,3.0,3.0,58,0.00,,,0.10,Wunderground v.1.15,2013-09-13 18:10:00,
2013-09-13 14:15:00,74.4,58.7,29.69,ESE,114,2.0,3.0,58,0.00,,,0.10,Wunderground v.1.15,2013-09-13 18:15:00,
2013-09-13 14:25:00,73.8,58.1,29.70,West,277,3.0,5.0,58,0.00,,,0.10,Wunderground v.1.15,2013-09-13 18:25:00,
2013-09-13 14:30:00,72.1,57.4,29.70,West,261,3.0,3.0,60,0.00,,,0.10,Wunderground v.1.15,2013-09-13 18:30:00,
2013-09-13 14:39:00,71.1,57.0,29.70,South,170,3.0,4.0,61,0.00,,,0.10,Wunderground v.1.15,2013-09-13 18:39:00,
2013-09-13 14:45:00,71.1,56.0,29.70,NW,321,3.0,4.0,59,0.00,,,0.10,Wunderground v.1.15,2013-09-13 18:45:00,
2013-09-13 14:55:00,71.1,57.0,29.71,ENE,63,3.0,7.0,61,0.00,,,0.10,Wunderground v.1.15,2013-09-13 18:55:00,
2013-09-13 15:00:00,71.1,57.0,29.71,WNW,282,2.0,2.0,61,0.00,,,0.10,Wunderground v.1.15,2013-09-13 19:00:00,
2013-09-13 15:05:00,70.9,55.9,29.71,NNE,20,2.0,4.0,59,0.00,,,0.10,Wunderground v.1.15,2013-09-13 19:05:00,
2013-09-13 15:15:00,70.0,55.9,29.71,West,265,2.0,2.0,61,0.00,,,0.10,Wunderground v.1.15,2013-09-13 19:15:00,
2013-09-13 15:24:00,70.2,55.7,29.71,West,275,2.0,5.0,60,0.00,,,0.10,Wunderground v.1.15,2013-09-13 19:24:00,
2013-09-13 15:30:00,70.3,56.7,29.72,NE,47,2.0,2.0,62,0.00,,,0.10,Wunderground v.1.15,2013-09-13 19:30:00,
2013-09-13 15:40:00,70.4,57.2,29.72,SW,234,2.0,2.0,63,0.00,,,0.10,Wunderground v.1.15,2013-09-13 19:40:00,
2013-09-13 15:45:00,70.4,56.3,29.72,NW,324,2.0,2.0,61,0.00,,,0.10,Wunderground v.1.15,2013-09-13 19:45:00,
2013-09-13 15:54:00,69.7,55.6,29.72,NE,51,2.0,3.0,61,0.00,,,0.10,Wunderground v.1.15,2013-09-13 19:54:00,
2013-09-13 16:00:00,69.2,56.1,29.73,WSW,244,2.0,2.0,63,0.00,,,0.10,Wunderground v.1.15,2013-09-13 20:00:00,
2013-09-13 16:10:00,68.7,55.6,29.73,WSW,248,1.0,1.0,63,0.00,,,0.10,Wunderground v.1.15,2013-09-13 20:10:00,
2013-09-13 16:15:00,68.8,55.7,29.73,West,263,2.0,2.0,63,0.00,,,0.10,Wunderground v.1.15,2013-09-13 20:15:00,
2013-09-13 16:25:00,69.0,56.7,29.74,West,266,1.0,3.0,65,0.00,,,0.10,Wunderground v.1.15,2013-09-13 20:25:00,
2013-09-13 16:30:00,68.9,55.8,29.74,NW,310,1.0,3.0,63,0.00,,,0.10,Wunderground v.1.15,2013-09-13 20:30:00,
2013-09-13 16:40:00,69.1,55.5,29.74,North,5,1.0,1.0,62,0.00,,,0.10,Wunderground v.1.15,2013-09-13 20:40:00,
2013-09-13 16:45:00,69.5,55.9,29.74,West,267,1.0,2.0,62,0.00,,,0.10,Wunderground v.1.15,2013-09-13 20:45:00,
2013-09-13 16:55:00,69.9,54.9,29.75,West,267,3.0,3.0,59,0.00,,,0.10,Wunderground v.1.15,2013-09-13 20:55:00,
2013-09-13 17:00:00,69.7,55.6,29.75,West,268,2.0,2.0,61,0.00,,,0.10,Wunderground v.1.15,2013-09-13 21:00:00,
2013-09-13 17:10:00,69.1,54.6,29.76,NW,317,1.0,1.0,60,0.00,,,0.10,Wunderground v.1.15,2013-09-13 21:10:00,
2013-09-13 17:15:00,69.0,55.9,29.76,NW,317,1.0,1.0,63,0.00,,,0.10,Wunderground v.1.15,2013-09-13 21:15:00,
2013-09-13 17:25:00,68.7,55.6,29.76,NNE,29,0.0,0.0,63,0.00,,,0.10,Wunderground v.1.15,2013-09-13 21:25:00,
2013-09-13 17:30:00,68.6,55.5,29.76,NNE,29,0.0,0.0,63,0.00,,,0.10,Wunderground v.1.15,2013-09-13 21:30:00,
2013-09-13 17:39:00,68.5,56.3,29.76,NNE,29,0.0,0.0,65,0.00,,,0.10,Wunderground v.1.15,2013-09-13 21:39:00,
2013-09-13 17:45:00,68.4,56.2,29.76,West,277,0.0,0.0,65,0.00,,,0.10,Wunderground v.1.15,2013-09-13 21:45:00,
2013-09-13 17:55:00,68.6,56.4,29.76,NE,49,1.0,2.0,65,0.00,,,0.10,Wunderground v.1.15,2013-09-13 21:55:00,
2013-09-13 18:00:00,68.4,56.2,29.76,North,355,1.0,2.0,65,0.00,,,0.10,Wunderground v.1.15,2013-09-13 22:00:00,
2013-09-13 18:10:00,67.6,55.0,29.76,WNW,301,1.0,1.0,64,0.00,,,0.10,Wunderground v.1.15,2013-09-13 22:10:00,
2013-09-13 18:15:00,67.2,54.6,29.76,WNW,294,2.0,2.0,64,0.00,,,0.10,Wunderground v.1.15,2013-09-13 22:15:00,
2013-09-13 18:25:00,66.6,54.5,29.77,West,264,1.0,2.0,65,0.00,,,0.10,Wunderground v.1.15,2013-09-13 22:25:00,
2013-09-13 18:30:00,66.3,54.6,29.77,West,266,1.0,1.0,66,0.00,,,0.10,Wunderground v.1.15,2013-09-13 22:30:00,
2013-09-13 18:40:00,66.1,54.8,29.78,West,276,1.0,1.0,67,0.00,,,0.10,Wunderground v.1.15,2013-09-13 22:40:00,
2013-09-13 18:45:00,65.9,54.2,29.78,SW,215,1.0,1.0,66,0.00,,,0.10,Wunderground v.1.15,2013-09-13 22:45:00,
2013-09-13 18:55:00,65.4,54.2,29.78,West,263,1.0,1.0,67,0.00,,,0.10,Wunderground v.1.15,2013-09-13 22:55:00,
2013-09-13 19:00:00,65.1,54.3,29.78,West,280,0.0,0.0,68,0.00,,,0.10,Wunderground v.1.15,2013-09-13 23:00:00,
2013-09-13 19:10:00,64.4,54.4,29.78,SW,214,0.0,1.0,70,0.00,,,0.10,Wunderground v.1.15,2013-09-13 23:10:00,
2013-09-13 19:15:00,64.0,54.4,29.78,SW,214,0.0,1.0,71,0.00,,,0.10,Wunderground v.1.15,2013-09-13 23:15:00,
2013-09-13 19:25:00,63.4,55.0,29.78,SW,214,0.0,0.0,74,0.00,,,0.10,Wunderground v.1.15,2013-09-13 23:25:00,
2013-09-13 19:30:00,63.0,54.6,29.79,SW,214,0.0,0.0,74,0.00,,,0.10,Wunderground v.1.15,2013-09-13 23:30:00,
2013-09-13 19:40:00,62.6,54.6,29.80,SW,219,0.0,0.0,75,0.00,,,0.10,Wunderground v.1.15,2013-09-13 23:40:00,
2013-09-13 19:45:00,62.3,53.9,29.80,NE,43,0.0,0.0,74,0.00,,,0.10,Wunderground v.1.15,2013-09-13 23:45:00,
2013-09-13 19:55:00,62.0,53.6,29.81,ENE,71,1.0,1.0,74,0.00,,,0.10,Wunderground v.1.15,2013-09-13 23:55:00,
2013-09-13 20:00:00,61.8,53.1,29.82,ENE,59,1.0,1.0,73,0.00,,,0.10,Wunderground v.1.15,2013-09-14 00:00:00,
2013-09-13 20:10:00,61.6,53.2,29.83,NW,311,0.0,0.0,74,0.00,,,0.10,Wunderground v.1.15,2013-09-14 00:10:00,
2013-09-13 20:15:00,61.4,52.7,29.83,NE,51,1.0,1.0,73,0.00,,,0.10,Wunderground v.1.15,2013-09-14 00:15:00,
2013-09-13 20:25:00,61.2,52.5,29.84,NW,313,0.0,1.0,73,0.00,,,0.10,Wunderground v.1.15,2013-09-14 00:25:00,
2013-09-13 20:30:00,61.0,52.7,29.85,West,277,0.0,2.0,74,0.00,,,0.10,Wunderground v.1.15,2013-09-14 00:30:00,
2013-09-13 20:39:00,60.9,52.6,29.85,SW,216,1.0,1.0,74,0.00,,,0.10,Wunderground v.1.15,2013-09-14 00:39:00,
2013-09-13 20:45:00,60.8,52.5,29.85,SW,216,0.0,1.0,74,0.00,,,0.10,Wunderground v.1.15,2013-09-14 00:45:00,
2013-09-13 20:55:00,60.5,52.9,29.86,NNW,343,0.0,0.0,76,0.00,,,0.10,Wunderground v.1.15,2013-09-14 00:55:00,
2013-09-13 21:00:00,60.4,52.8,29.86,NNW,343,0.0,0.0,76,0.00,,,0.10,Wunderground v.1.15,2013-09-14 01:00:00,
2013-09-13 21:10:00,59.9,53.0,29.86,NNW,343,0.0,0.0,78,0.00,,,0.10,Wunderground v.1.15,2013-09-14 01:10:00,
2013-09-13 21:15:00,59.6,53.1,29.86,NNW,343,0.0,0.0,79,0.00,,,0.10,Wunderground v.1.15,2013-09-14 01:15:00,
2013-09-13 21:25:00,59.1,52.2,29.86,South,178,0.0,1.0,78,0.00,,,0.10,Wunderground v.1.15,2013-09-14 01:25:00,
2013-09-13 21:30:00,59.0,52.5,29.86,South,178,0.0,1.0,79,0.00,,,0.10,Wunderground v.1.15,2013-09-14 01:30:00,
2013-09-13 21:40:00,58.8,52.0,29.86,NE,55,0.0,0.0,78,0.00,,,0.10,Wunderground v.1.15,2013-09-14 01:40:00,
2013-09-13 21:45:00,58.7,52.2,29.86,NE,54,0.0,0.0,79,0.00,,,0.10,Wunderground v.1.15,2013-09-14 01:45:00,
2013-09-13 21:55:00,58.4,51.6,29.87,ESE,102,0.0,0.0,78,0.00,,,0.10,Wunderground v.1.15,2013-09-14 01:55:00,
2013-09-13 22:00:00,58.3,51.8,29.86,ESE,102,0.0,0.0,79,0.00,,,0.10,Wunderground v.1.15,2013-09-14 02:00:00,
2013-09-13 22:10:00,58.0,51.9,29.87,WNW,295,0.0,0.0,80,0.00,,,0.10,Wunderground v.1.15,2013-09-14 02:10:00,
2013-09-13 22:15:00,57.8,51.3,29.87,WNW,298,0.0,0.0,79,0.00,,,0.10,Wunderground v.1.15,2013-09-14 02:15:00,
2013-09-13 22:25:00,57.6,51.1,29.88,NE,50,0.0,2.0,79,0.00,,,0.10,Wunderground v.1.15,2013-09-14 02:25:00,
2013-09-13 22:30:00,57.5,50.7,29.88,South,182,0.0,0.0,78,0.00,,,0.10,Wunderground v.1.15,2013-09-14 02:30:00,
2013-09-13 22:40:00,57.2,50.4,29.88,West,275,0.0,4.0,78,0.00,,,0.10,Wunderground v.1.15,2013-09-14 02:40:00,
2013-09-13 22:45:00,57.3,50.1,29.88,North,9,1.0,4.0,77,0.00,,,0.10,Wunderground v.1.15,2013-09-14 02:45:00,
2013-09-13 22:55:00,57.5,49.6,29.88,West,267,2.0,2.0,75,0.00,,,0.10,Wunderground v.1.15,2013-09-14 02:55:00,
2013-09-13 23:00:00,57.6,49.7,29.89,NNE,18,1.0,1.0,75,0.00,,,0.10,Wunderground v.1.15,2013-09-14 03:00:00,
2013-09-13 23:10:00,57.2,49.3,29.89,NNE,22,1.0,2.0,75,0.00,,,0.10,Wunderground v.1.15,2013-09-14 03:10:00,
2013-09-13 23:15:00,57.1,49.6,29.89,WNW,302,1.0,2.0,76,0.00,,,0.10,Wunderground v.1.15,2013-09-14 03:15:00,
2013-09-13 23:25:00,56.9,49.4,29.89,WNW,302,0.0,0.0,76,0.00,,,0.10,Wunderground v.1.15,2013-09-14 03:25:00,
2013-09-13 23:30:00,56.8,49.3,29.89,WNW,302,0.0,0.0,76,0.00,,,0.10,Wunderground v.1.15,2013-09-14 03:30:00,
2013-09-13 23:40:00,56.6,49.1,29.89,West,272,0.0,2.0,76,0.00,,,0.10,Wunderground v.1.15,2013-09-14 03:40:00,
2013-09-13 23:45:00,56.4,49.3,29.89,NNE,30,0.0,2.0,77,0.00,,,0.10,Wunderground v.1.15,2013-09-14 03:45:00,
2013-09-13 23:55:00,56.2,49.1,29.89,ENE,57,0.0,1.0,77,0.00,,,0.10,Wunderground v.1.15,2013-09-14 03:55:00,